Time;durP1;ratioP1;P1;durP2;ratioP2;P2;SDS_P1;SDS_P2;PMS_P1;PMS_P2;Temp;Humidity;BMP_temperature;BMP_pressure;BME280_temperature;BME280_humidity;BME280_pressure;Samples;Min_cycle;Max_cycle;Signal;HPM_P1;HPM_P2
2022/03/18 00:00:20;;;;;;;18.17;11.63;;;3.10;49.50;;;;;;5075620;28;20612;-72
2022/03/18 00:02:49;;;;;;;19.20;11.33;;;3.10;49.30;;;;;;5070203;28;20228;-67
2022/03/18 00:05:17;;;;;;;16.23;10.47;;;3.00;49.10;;;;;;5064203;28;20316;-67
2022/03/18 00:07:45;;;;;;;17.70;11.33;;;3.00;49.10;;;;;;5065004;28;20642;-66
2022/03/18 00:10:13;;;;;;;18.90;10.97;;;2.90;49.10;;;;;;5071023;28;20197;-67
2022/03/18 00:12:40;;;;;;;18.47;11.20;;;2.90;49.20;;;;;;5062465;28;20212;-66
2022/03/18 00:15:09;;;;;;;17.33;10.87;;;2.90;49.20;;;;;;5073365;28;20213;-66
2022/03/18 00:17:36;;;;;;;17.90;10.93;;;2.90;49.30;;;;;;5063248;28;20206;-67
2022/03/18 00:20:06;;;;;;;21.83;11.40;;;2.90;49.40;;;;;;5068610;28;20341;-67
2022/03/18 00:22:33;;;;;;;16.70;10.00;;;2.80;49.40;;;;;;5059259;28;20293;-67
2022/03/18 00:25:00;;;;;;;18.63;10.47;;;2.80;49.40;;;;;;5070219;28;20296;-66
2022/03/18 00:27:27;;;;;;;17.53;10.77;;;2.80;49.60;;;;;;5066622;28;20213;-67
2022/03/18 00:29:56;;;;;;;17.83;11.57;;;2.70;49.70;;;;;;5072378;28;20293;-67
2022/03/18 00:32:23;;;;;;;19.00;11.20;;;2.80;49.90;;;;;;5070869;28;20233;-66
2022/03/18 00:34:50;;;;;;;23.07;11.77;;;2.70;49.80;;;;;;5067641;28;20710;-66
2022/03/18 00:37:18;;;;;;;18.57;10.60;;;2.70;49.90;;;;;;5074249;28;20581;-66
2022/03/18 00:39:45;;;;;;;20.63;11.00;;;2.70;50.00;;;;;;5061193;28;20304;-66
2022/03/18 00:42:12;;;;;;;19.90;11.37;;;2.70;50.00;;;;;;5071030;28;20236;-66
2022/03/18 00:44:39;;;;;;;18.90;10.57;;;2.70;50.00;;;;;;5073449;28;20213;-67
2022/03/18 00:51:59;;;;;;;17.57;10.07;;;2.70;50.20;;;;;;5073931;28;20283;-66
2022/03/18 00:52:41;;;;;;;16.03;10.80;;;2.70;50.30;;;;;;5071004;28;20207;-66
2022/03/18 00:55:08;;;;;;;17.83;11.50;;;2.60;50.20;;;;;;5074749;28;20262;-67
2022/03/18 00:57:36;;;;;;;15.13;10.20;;;2.60;50.30;;;;;;5073298;28;20288;-66
2022/03/18 01:00:04;;;;;;;17.03;10.60;;;2.60;50.30;;;;;;5074011;28;20650;-67
2022/03/18 01:02:31;;;;;;;18.13;11.10;;;2.60;50.30;;;;;;5073855;28;20236;-66
2022/03/18 01:04:58;;;;;;;17.30;10.63;;;2.60;50.30;;;;;;5067762;28;20654;-67
2022/03/18 01:07:25;;;;;;;20.37;10.73;;;2.60;50.40;;;;;;5070686;28;20248;-67
2022/03/18 01:09:53;;;;;;;16.13;11.00;;;2.50;50.30;;;;;;5072459;28;20636;-65
2022/03/18 01:12:20;;;;;;;16.33;10.07;;;2.50;50.30;;;;;;5070759;28;20275;-66
2022/03/18 01:14:47;;;;;;;18.67;11.30;;;2.40;50.50;;;;;;5070671;28;20232;-65
2022/03/18 01:17:14;;;;;;;15.53;10.60;;;2.30;50.70;;;;;;5070549;28;20209;-66
2022/03/18 01:19:41;;;;;;;13.97;9.53;;;2.30;50.90;;;;;;5071546;28;20237;-66
2022/03/18 01:22:09;;;;;;;17.80;10.60;;;2.30;51.10;;;;;;5060410;28;20229;-66
2022/03/18 01:24:36;;;;;;;18.33;11.37;;;2.20;51.20;;;;;;5068547;28;20209;-66
2022/03/18 01:27:05;;;;;;;17.07;10.30;;;2.20;51.40;;;;;;5071485;28;20209;-66
2022/03/18 01:29:32;;;;;;;14.80;9.93;;;2.10;51.40;;;;;;5074131;28;20209;-66
2022/03/18 01:31:59;;;;;;;19.03;10.23;;;2.10;51.60;;;;;;5074465;28;20268;-66
2022/03/18 01:34:26;;;;;;;17.13;9.90;;;2.10;51.80;;;;;;5073362;28;20297;-67
2022/03/18 01:36:53;;;;;;;16.10;9.60;;;2.10;52.00;;;;;;5071888;28;20215;-66
2022/03/18 01:39:22;;;;;;;18.80;10.93;;;2.00;52.00;;;;;;5065480;28;20300;-67
2022/03/18 01:41:49;;;;;;;20.77;10.10;;;2.00;52.10;;;;;;5056549;28;20230;-67
2022/03/18 01:44:19;;;;;;;16.50;9.67;;;1.90;52.80;;;;;;5066123;28;20574;-66
2022/03/18 01:46:46;;;;;;;14.63;9.43;;;2.00;52.30;;;;;;5069304;28;20682;-66
2022/03/18 01:49:13;;;;;;;16.90;10.17;;;1.90;52.30;;;;;;5072763;28;20650;-66
2022/03/18 01:51:41;;;;;;;17.47;10.00;;;1.90;53.10;;;;;;5071342;28;20194;-66
2022/03/18 01:56:54;;;;;;;18.40;10.73;;;1.90;52.60;;;;;;5071850;28;20282;-66
2022/03/18 01:59:22;;;;;;;19.87;10.67;;;1.90;52.60;;;;;;5073049;28;20296;-66
2022/03/18 02:01:50;;;;;;;17.17;9.63;;;1.90;52.60;;;;;;5073056;28;20654;-67
2022/03/18 02:04:17;;;;;;;15.40;9.80;;;1.90;52.60;;;;;;5071421;28;20209;-66
2022/03/18 02:06:44;;;;;;;16.90;9.97;;;1.90;52.70;;;;;;5058180;28;20220;-67
2022/03/18 02:09:11;;;;;;;12.93;9.10;;;1.90;52.80;;;;;;5070949;28;20201;-67
2022/03/18 02:11:39;;;;;;;18.03;9.50;;;1.90;52.80;;;;;;5066264;28;20212;-66
2022/03/18 02:14:06;;;;;;;15.87;9.50;;;1.90;52.90;;;;;;5061382;28;20213;-66
2022/03/18 02:16:39;;;;;;;16.57;10.00;;;1.90;52.90;;;;;;5076964;28;20306;-66
2022/03/18 02:19:06;;;;;;;16.73;9.17;;;1.90;53.00;;;;;;5071355;28;20556;-66
2022/03/18 02:21:37;;;;;;;15.77;9.47;;;1.90;53.00;;;;;;5057233;28;20234;-65
2022/03/18 02:24:06;;;;;;;14.43;9.23;;;1.90;53.00;;;;;;5075573;28;20221;-66
2022/03/18 02:26:34;;;;;;;18.23;10.37;;;1.90;53.00;;;;;;5075499;28;20243;-66
2022/03/18 02:29:04;;;;;;;17.47;9.27;;;1.90;53.00;;;;;;5077576;28;20276;-66
2022/03/18 02:31:31;;;;;;;13.77;8.83;;;1.90;53.00;;;;;;5076918;28;20205;-67
2022/03/18 02:33:59;;;;;;;12.70;8.83;;;1.90;53.10;;;;;;5070451;28;20233;-66
2022/03/18 02:36:26;;;;;;;13.67;9.27;;;1.80;53.00;;;;;;5075252;28;20292;-66
2022/03/18 02:38:52;;;;;;;16.37;9.67;;;1.90;53.10;;;;;;5068079;28;20293;-66
2022/03/18 02:41:21;;;;;;;15.93;9.90;;;1.90;53.10;;;;;;5072936;28;20236;-67
2022/03/18 02:43:48;;;;;;;17.63;9.57;;;1.90;53.20;;;;;;5077656;28;20619;-67
2022/03/18 02:46:16;;;;;;;12.50;8.50;;;1.80;53.10;;;;;;5073132;28;20285;-67
2022/03/18 02:48:43;;;;;;;15.80;8.93;;;1.80;53.70;;;;;;5076699;28;20698;-67
2022/03/18 02:51:10;;;;;;;17.87;9.83;;;1.80;53.20;;;;;;5066378;28;20229;-67
2022/03/18 02:53:37;;;;;;;14.63;9.73;;;1.90;53.40;;;;;;5075908;28;20292;-66
2022/03/18 02:56:04;;;;;;;15.23;9.40;;;1.70;53.30;;;;;;5065011;28;20313;-67
2022/03/18 02:58:34;;;;;;;14.90;9.37;;;1.70;53.40;;;;;;5074674;28;20645;-66
2022/03/18 03:01:01;;;;;;;17.17;10.00;;;1.70;53.50;;;;;;5076593;28;20304;-67
2022/03/18 03:03:28;;;;;;;14.70;9.67;;;1.70;53.60;;;;;;5076899;28;20244;-66
2022/03/18 03:08:39;;;;;;;13.63;8.63;;;1.60;53.70;;;;;;5076611;28;20693;-66
2022/03/18 03:11:06;;;;;;;16.27;10.20;;;1.60;53.80;;;;;;5075945;28;20201;-67
2022/03/18 03:13:35;;;;;;;12.90;8.77;;;1.60;53.70;;;;;;5076794;28;20646;-66
2022/03/18 03:16:02;;;;;;;14.73;9.23;;;1.60;53.70;;;;;;5076171;28;20579;-67
2022/03/18 03:18:29;;;;;;;16.87;8.93;;;1.60;53.80;;;;;;5076553;28;20262;-67
2022/03/18 03:20:56;;;;;;;18.77;9.10;;;1.60;53.80;;;;;;5075929;28;20248;-67
2022/03/18 03:23:23;;;;;;;14.50;9.33;;;1.60;53.80;;;;;;5076002;28;20680;-66
2022/03/18 03:25:50;;;;;;;14.33;9.60;;;1.60;53.70;;;;;;5074387;28;20576;-67
2022/03/18 03:28:18;;;;;;;15.83;9.43;;;1.60;53.80;;;;;;5076016;28;20205;-66
2022/03/18 03:30:46;;;;;;;15.00;9.67;;;1.60;53.90;;;;;;5075690;28;20211;-66
2022/03/18 03:33:13;;;;;;;13.63;9.20;;;1.50;53.80;;;;;;5076441;28;20301;-66
2022/03/18 03:35:41;;;;;;;14.03;9.33;;;1.50;54.00;;;;;;5066273;28;20216;-68
2022/03/18 03:38:09;;;;;;;14.20;9.00;;;1.50;54.10;;;;;;5072246;28;20644;-66
2022/03/18 03:40:37;;;;;;;14.93;9.17;;;1.40;54.20;;;;;;5064582;28;20237;-67
2022/03/18 03:43:05;;;;;;;14.23;8.90;;;1.40;54.20;;;;;;5075968;28;20204;-65
2022/03/18 03:45:31;;;;;;;15.03;9.67;;;1.50;54.30;;;;;;5073970;28;20201;-67
2022/03/18 03:48:00;;;;;;;15.27;9.03;;;1.40;54.30;;;;;;5076603;28;20296;-66
2022/03/18 03:50:27;;;;;;;13.47;9.80;;;1.40;54.30;;;;;;5068164;28;20236;-67
2022/03/18 03:52:54;;;;;;;13.10;9.77;;;1.40;54.40;;;;;;5076418;28;20201;-67
2022/03/18 03:55:21;;;;;;;16.30;9.70;;;1.40;54.50;;;;;;5073678;28;20293;-67
2022/03/18 03:57:48;;;;;;;15.03;9.20;;;1.40;54.50;;;;;;5068136;28;20213;-66
2022/03/18 04:00:16;;;;;;;15.27;9.30;;;1.40;54.60;;;;;;5075342;28;20224;-66
2022/03/18 04:02:43;;;;;;;14.03;8.77;;;1.50;54.70;;;;;;5076296;28;20205;-66
2022/03/18 04:05:12;;;;;;;14.73;9.03;;;1.40;54.60;;;;;;5073800;28;20214;-66
2022/03/18 04:07:40;;;;;;;16.67;8.87;;;1.40;54.50;;;;;;5065905;28;20244;-66
2022/03/18 04:10:10;;;;;;;13.63;8.73;;;1.40;54.60;;;;;;5065582;28;20293;-66
2022/03/18 04:12:37;;;;;;;14.87;8.87;;;1.40;54.70;;;;;;5076117;28;20692;-67
2022/03/18 04:15:05;;;;;;;14.90;9.17;;;1.40;54.70;;;;;;5075718;28;20205;-66
2022/03/18 04:17:38;;;;;;;11.67;8.60;;;1.40;54.80;;;;;;5062084;28;20206;-67
2022/03/18 04:20:06;;;;;;;14.37;9.03;;;1.40;54.90;;;;;;5075516;28;20646;-67
2022/03/18 04:22:34;;;;;;;13.30;9.17;;;1.40;54.90;;;;;;5076026;28;20316;-66
2022/03/18 04:25:01;;;;;;;14.80;9.57;;;1.40;54.90;;;;;;5073130;28;20247;-68
2022/03/18 04:27:28;;;;;;;15.33;9.47;;;1.30;54.80;;;;;;5074019;28;20288;-67
2022/03/18 04:29:54;;;;;;;12.97;8.53;;;1.30;54.80;;;;;;5066231;28;20621;-67
2022/03/18 04:32:21;;;;;;;14.50;8.73;;;1.30;54.90;;;;;;5073071;28;20197;-66
2022/03/18 04:34:48;;;;;;;14.03;8.47;;;1.30;54.90;;;;;;5058048;28;20300;-66
2022/03/18 04:37:15;;;;;;;11.70;8.40;;;1.30;55.10;;;;;;5066589;28;20212;-66
2022/03/18 04:39:43;;;;;;;16.07;9.17;;;1.30;55.20;;;;;;5061549;28;20206;-67
2022/03/18 04:42:10;;;;;;;14.50;9.33;;;1.30;55.30;;;;;;5070929;28;20214;-67
2022/03/18 04:44:37;;;;;;;14.80;9.63;;;1.30;55.40;;;;;;5071975;28;20729;-66
2022/03/18 04:47:04;;;;;;;19.53;11.03;;;1.30;55.40;;;;;;5075331;28;20229;-67
2022/03/18 04:49:31;;;;;;;16.63;9.83;;;1.30;55.60;;;;;;5073737;28;20288;-66
2022/03/18 04:51:58;;;;;;;17.00;10.00;;;1.30;55.70;;;;;;5075402;28;20298;-66
2022/03/18 04:54:25;;;;;;;20.17;10.43;;;1.30;55.90;;;;;;5073334;28;20252;-66
2022/03/18 04:59:37;;;;;;;17.37;10.20;;;1.20;56.10;;;;;;5072637;28;20350;-67
2022/03/18 05:02:05;;;;;;;19.30;10.60;;;1.20;56.30;;;;;;5069770;28;20225;-66
2022/03/18 05:04:32;;;;;;;19.83;10.70;;;1.20;56.40;;;;;;5064841;28;20220;-67
2022/03/18 05:06:59;;;;;;;20.63;11.27;;;1.20;56.50;;;;;;5070873;28;20270;-67
2022/03/18 05:09:26;;;;;;;19.87;11.03;;;1.20;56.60;;;;;;5071208;28;20227;-69
2022/03/18 05:11:54;;;;;;;20.63;11.37;;;1.20;57.20;;;;;;5074355;28;20300;-67
2022/03/18 05:14:21;;;;;;;16.63;10.43;;;1.20;56.60;;;;;;5073272;28;20302;-66
2022/03/18 05:16:49;;;;;;;15.80;10.50;;;1.30;56.70;;;;;;5074383;28;20715;-67
2022/03/18 05:19:16;;;;;;;15.53;10.57;;;1.30;56.60;;;;;;5067609;28;20209;-67
2022/03/18 05:21:43;;;;;;;17.47;10.53;;;1.30;56.60;;;;;;5070437;28;20225;-66
2022/03/18 05:24:10;;;;;;;19.07;10.73;;;1.40;56.70;;;;;;5072221;28;20243;-66
2022/03/18 05:26:37;;;;;;;18.93;10.47;;;1.40;56.60;;;;;;5074098;28;20288;-67
2022/03/18 05:29:06;;;;;;;16.27;9.63;;;1.40;56.60;;;;;;5073662;28;20592;-66
2022/03/18 05:31:35;;;;;;;16.93;10.20;;;1.40;56.60;;;;;;5070598;28;20201;-66
2022/03/18 05:34:02;;;;;;;17.17;10.47;;;1.50;56.70;;;;;;5065393;28;20212;-66
2022/03/18 05:36:29;;;;;;;15.87;10.67;;;1.40;56.60;;;;;;5062876;28;20233;-67
2022/03/18 05:38:55;;;;;;;17.60;11.00;;;1.50;56.60;;;;;;5063778;28;20652;-66
2022/03/18 05:41:23;;;;;;;17.77;10.50;;;1.50;56.60;;;;;;5073111;28;20264;-66
2022/03/18 05:43:50;;;;;;;15.43;10.30;;;1.60;56.60;;;;;;5074037;28;20632;-66
2022/03/18 05:46:18;;;;;;;17.87;11.10;;;1.60;56.50;;;;;;5073614;28;20688;-66
2022/03/18 05:48:45;;;;;;;18.80;11.77;;;1.60;56.50;;;;;;5073736;28;20707;-66
2022/03/18 05:51:12;;;;;;;14.10;9.90;;;1.70;56.40;;;;;;5073028;28;20201;-66
2022/03/18 05:53:39;;;;;;;27.33;11.07;;;1.80;56.30;;;;;;5068531;28;20209;-67
2022/03/18 05:58:51;;;;;;;17.97;10.40;;;1.80;56.00;;;;;;5059256;28;20201;-68
2022/03/18 06:01:20;;;;;;;21.23;10.73;;;1.90;55.90;;;;;;5070910;28;20264;-67
2022/03/18 06:03:48;;;;;;;16.03;10.60;;;2.10;55.90;;;;;;5072847;28;20233;-67
2022/03/18 06:06:16;;;;;;;16.43;10.10;;;2.00;55.60;;;;;;5070399;28;20237;-66
2022/03/18 06:14:11;;;;;;;19.87;10.23;;;2.40;55.70;;;;;;5071981;28;20192;-66
2022/03/18 06:16:39;;;;;;;14.47;9.77;;;2.60;55.40;;;;;;5057370;28;20285;-67
2022/03/18 06:19:06;;;;;;;17.43;9.07;;;2.70;54.70;;;;;;5071678;28;20233;-66
2022/03/18 06:21:33;;;;;;;16.53;9.67;;;2.80;54.30;;;;;;5073680;28;20770;-67
2022/03/18 06:24:00;;;;;;;17.77;9.77;;;2.90;54.00;;;;;;5072152;28;20654;-66
2022/03/18 06:26:27;;;;;;;14.13;8.27;;;2.90;53.70;;;;;;5071643;28;20633;-68
2022/03/18 06:28:54;;;;;;;10.80;8.43;;;2.90;53.30;;;;;;5073203;28;20208;-67
2022/03/18 06:31:20;;;;;;;14.23;9.03;;;3.00;53.00;;;;;;5073703;28;20224;-67
2022/03/18 06:33:49;;;;;;;14.57;8.63;;;3.00;52.70;;;;;;5062664;28;20202;-68
2022/03/18 06:36:16;;;;;;;15.80;8.67;;;3.10;52.80;;;;;;5069751;28;20304;-67
2022/03/18 06:38:42;;;;;;;13.70;8.73;;;3.20;52.60;;;;;;5065164;28;20266;-68
2022/03/18 06:41:09;;;;;;;13.63;8.93;;;3.20;52.20;;;;;;5066928;28;20245;-68
2022/03/18 06:43:36;;;;;;;15.27;9.00;;;3.50;52.20;;;;;;5072432;28;20243;-66
2022/03/18 06:46:03;;;;;;;14.87;8.70;;;3.70;51.10;;;;;;5072879;28;20296;-66
2022/03/18 06:48:30;;;;;;;11.80;8.77;;;3.80;51.20;;;;;;5067419;28;20244;-67
2022/03/18 06:50:59;;;;;;;15.23;9.10;;;3.80;51.10;;;;;;5059487;28;20241;-72
2022/03/18 06:53:27;;;;;;;11.17;6.97;;;3.80;51.00;;;;;;5057427;28;20198;-73
2022/03/18 06:55:53;;;;;;;13.83;8.87;;;3.90;50.80;;;;;;5069356;28;20205;-72
2022/03/18 06:58:20;;;;;;;14.90;8.00;;;4.00;50.50;;;;;;5071136;28;20233;-71
2022/03/18 07:00:47;;;;;;;13.37;8.50;;;4.00;50.40;;;;;;5072842;28;20245;-71
2022/03/18 07:03:14;;;;;;;12.80;8.33;;;4.10;50.30;;;;;;5074695;28;20292;-72
2022/03/18 07:05:41;;;;;;;13.07;8.13;;;4.20;50.00;;;;;;5063026;28;20730;-72
2022/03/18 07:08:09;;;;;;;13.40;8.37;;;4.30;49.90;;;;;;5063536;28;20198;-72
2022/03/18 07:10:36;;;;;;;12.20;8.63;;;4.40;49.60;;;;;;5066052;28;20312;-71
2022/03/18 07:13:03;;;;;;;13.17;8.67;;;4.40;49.20;;;;;;5067149;28;20293;-73
2022/03/18 07:15:30;;;;;;;12.07;7.77;;;4.40;49.00;;;;;;5069818;28;20572;-74
2022/03/18 07:17:59;;;;;;;16.33;9.13;;;4.40;48.90;;;;;;5070465;28;20210;-74
2022/03/18 07:20:28;;;;;;;15.43;8.63;;;4.50;48.90;;;;;;5073670;28;20251;-71
2022/03/18 07:23:02;;;;;;;16.00;8.60;;;4.50;48.60;;;;;;5065949;28;20659;-73
2022/03/18 07:25:31;;;;;;;11.97;7.83;;;4.60;48.50;;;;;;5068674;28;20211;-72
2022/03/18 07:27:58;;;;;;;13.13;8.80;;;4.70;48.10;;;;;;5060744;28;20209;-72
2022/03/18 07:30:25;;;;;;;12.93;7.87;;;4.80;47.80;;;;;;5063323;28;20658;-72
2022/03/18 07:32:53;;;;;;;14.90;8.77;;;4.80;48.40;;;;;;5069476;28;20286;-71
2022/03/18 07:35:20;;;;;;;15.40;8.97;;;4.90;47.80;;;;;;5066833;28;20206;-72
2022/03/18 07:37:48;;;;;;;12.27;7.80;;;5.00;47.60;;;;;;5059612;28;20202;-72
2022/03/18 07:40:15;;;;;;;13.50;8.67;;;5.20;47.20;;;;;;5068444;28;20259;-69
2022/03/18 07:42:48;;;;;;;11.57;7.57;;;5.30;46.70;;;;;;5061703;28;20272;-71
2022/03/18 07:45:19;;;;;;;13.57;8.53;;;5.50;46.60;;;;;;5061123;28;20203;-73
2022/03/18 07:47:46;;;;;;;14.40;9.40;;;5.60;46.30;;;;;;5066107;28;20212;-72
2022/03/18 07:50:13;;;;;;;13.40;8.23;;;5.80;46.10;;;;;;5070200;28;20572;-72
2022/03/18 07:52:40;;;;;;;13.97;8.77;;;5.90;45.90;;;;;;5076751;28;20567;-71
2022/03/18 07:55:07;;;;;;;14.43;8.57;;;6.10;45.70;;;;;;5064987;28;20202;-68
2022/03/18 07:57:34;;;;;;;9.10;7.13;;;6.20;46.00;;;;;;5065360;28;20208;-71
2022/03/18 08:00:03;;;;;;;8.57;6.50;;;6.30;45.10;;;;;;5071577;28;20202;-70
2022/03/18 08:02:30;;;;;;;11.40;6.70;;;6.50;44.30;;;;;;5072372;28;20244;-72
2022/03/18 08:04:57;;;;;;;13.55;8.07;;;6.60;43.90;;;;;;5072721;28;20480;-72
2022/03/18 08:07:24;;;;;;;12.57;6.80;;;6.70;43.40;;;;;;5068567;28;20206;-71
2022/03/18 08:09:50;;;;;;;12.23;7.18;;;6.80;43.10;;;;;;5072638;28;20484;-70
2022/03/18 08:12:17;;;;;;;11.87;7.43;;;6.80;42.80;;;;;;5071115;28;20667;-71
2022/03/18 08:14:44;;;;;;;11.63;6.80;;;6.90;42.70;;;;;;5060785;28;20306;-72
2022/03/18 08:17:13;;;;;;;9.97;6.27;;;7.00;42.50;;;;;;5061727;28;20243;-70
2022/03/18 08:19:40;;;;;;;10.23;5.83;;;7.20;42.30;;;;;;5066339;28;20193;-72
2022/03/18 08:22:07;;;;;;;10.37;5.80;;;7.30;41.70;;;;;;5069290;28;20285;-74
2022/03/18 08:24:34;;;;;;;7.77;5.80;;;7.30;41.00;;;;;;5071214;28;20205;-70
2022/03/18 08:27:00;;;;;;;8.13;5.37;;;7.30;40.70;;;;;;5073171;28;20213;-70
2022/03/18 08:29:27;;;;;;;9.23;6.10;;;7.40;40.50;;;;;;5066754;28;20284;-71
2022/03/18 08:31:54;;;;;;;11.10;5.13;;;7.50;40.50;;;;;;5070528;28;20208;-75
2022/03/18 08:34:23;;;;;;;8.60;5.57;;;7.70;39.90;;;;;;5070608;28;20221;-74
2022/03/18 08:36:50;;;;;;;10.23;6.07;;;7.70;39.60;;;;;;5073996;28;20200;-72
2022/03/18 08:39:17;;;;;;;12.13;5.30;;;7.60;39.30;;;;;;5061377;28;20214;-71
2022/03/18 08:41:44;;;;;;;8.20;5.47;;;7.70;39.30;;;;;;5063325;28;20727;-74
2022/03/18 08:44:11;;;;;;;8.97;5.67;;;7.70;39.50;;;;;;5061895;28;20245;-72
2022/03/18 08:46:38;;;;;;;8.87;5.87;;;7.80;39.50;;;;;;5061629;28;20202;-71
2022/03/18 08:49:05;;;;;;;8.17;5.67;;;7.80;39.20;;;;;;5063946;28;20617;-71
2022/03/18 08:51:33;;;;;;;8.10;5.50;;;7.90;39.30;;;;;;5061272;28;20241;-73
2022/03/18 08:54:02;;;;;;;9.23;6.27;;;8.10;39.10;;;;;;5063323;28;20724;-72
2022/03/18 08:56:29;;;;;;;8.80;5.47;;;8.10;38.90;;;;;;5064147;28;20206;-72
2022/03/18 08:58:56;;;;;;;7.53;6.03;;;8.30;38.80;;;;;;5062022;28;20205;-73
2022/03/18 09:01:24;;;;;;;10.07;5.90;;;8.20;38.40;;;;;;5071857;28;20237;-73
2022/03/18 09:03:51;;;;;;;9.67;6.03;;;8.20;38.30;;;;;;5073583;28;20312;-71
2022/03/18 09:06:18;;;;;;;9.97;6.37;;;8.30;38.40;;;;;;5074390;28;20655;-72
2022/03/18 09:08:47;;;;;;;11.43;6.20;;;8.30;39.10;;;;;;5073938;28;20669;-72
2022/03/18 09:11:14;;;;;;;11.60;7.10;;;8.30;38.80;;;;;;5067790;28;20264;-74
2022/03/18 09:13:41;;;;;;;12.00;6.77;;;8.50;39.10;;;;;;5066013;28;20295;-70
2022/03/18 09:16:08;;;;;;;9.03;6.63;;;8.70;38.30;;;;;;5069211;28;20739;-68
2022/03/18 09:18:35;;;;;;;10.40;6.67;;;8.80;39.30;;;;;;5059184;28;20201;-70
2022/03/18 09:21:02;;;;;;;10.10;6.80;;;9.20;39.80;;;;;;5072041;28;20441;-70
2022/03/18 09:23:29;;;;;;;8.88;6.53;;;11.10;41.60;;;;;;5063910;28;20918;-71
2022/03/18 09:25:58;;;;;;;10.70;7.40;;;14.40;36.40;;;;;;5061341;28;20475;-72
2022/03/18 09:28:24;;;;;;;12.02;8.40;;;17.70;31.70;;;;;;5072631;28;20445;-71
2022/03/18 09:30:52;;;;;;;11.95;8.02;;;20.90;28.70;;;;;;5070781;28;20235;-70
2022/03/18 09:33:19;;;;;;;12.30;7.73;;;23.30;26.60;;;;;;5072828;28;20434;-71
2022/03/18 09:35:46;;;;;;;10.65;7.18;;;24.80;24.80;;;;;;5063759;28;20233;-72
2022/03/18 09:38:13;;;;;;;13.95;7.95;;;26.10;24.40;;;;;;5060398;28;20241;-71
2022/03/18 09:40:41;;;;;;;9.68;6.85;;;27.50;23.20;;;;;;5054191;28;20237;-70
2022/03/18 09:43:10;;;;;;;9.02;6.22;;;28.50;22.80;;;;;;5064835;28;20229;-71
2022/03/18 09:45:38;;;;;;;9.88;6.35;;;29.50;21.90;;;;;;5071197;28;20246;-70
2022/03/18 09:48:09;;;;;;;10.40;6.32;;;30.50;21.50;;;;;;5064460;28;20239;-70
2022/03/18 09:50:37;;;;;;;7.55;5.90;;;31.00;20.70;;;;;;5072562;28;20449;-71
2022/03/18 09:53:04;;;;;;;7.78;6.15;;;31.30;19.40;;;;;;5058929;28;20210;-71
2022/03/18 09:55:34;;;;;;;7.43;5.80;;;30.80;19.70;;;;;;5066866;28;20252;-72
2022/03/18 09:58:01;;;;;;;9.90;5.88;;;30.60;19.80;;;;;;5057040;28;20241;-71
2022/03/18 10:00:30;;;;;;;8.05;6.05;;;31.30;19.50;;;;;;5062467;28;20216;-72
2022/03/18 10:03:10;;;;;;;7.13;5.72;;;32.00;19.40;;;;;;5062040;28;20221;-71
2022/03/18 10:05:49;;;;;;;7.88;5.70;;;32.80;19.10;;;;;;5078110;28;20206;-74
2022/03/18 10:08:17;;;;;;;6.22;5.60;;;33.20;18.60;;;;;;5060543;28;20244;-73
2022/03/18 10:10:46;;;;;;;5.45;4.63;;;32.60;18.10;;;;;;5063153;28;20206;-72
2022/03/18 10:13:15;;;;;;;6.50;5.40;;;32.00;18.50;;;;;;5067483;28;20208;-72
2022/03/18 10:15:44;;;;;;;5.70;5.18;;;32.20;18.50;;;;;;5065971;28;20224;-73
2022/03/18 10:18:13;;;;;;;6.22;5.10;;;32.50;18.10;;;;;;5061382;28;20206;-72
2022/03/18 10:20:41;;;;;;;7.22;5.30;;;32.10;17.80;;;;;;5065724;28;20224;-71
2022/03/18 10:23:21;;;;;;;7.00;5.45;;;32.20;18.50;;;;;;5060071;28;20648;-71
2022/03/18 10:25:51;;;;;;;5.25;4.72;;;32.80;18.20;;;;;;5065322;28;20566;-72
2022/03/18 10:28:36;;;;;;;7.00;4.97;;;33.30;18.00;;;;;;5070125;28;20205;-73
2022/03/18 10:31:16;;;;;;;6.32;4.90;;;34.20;17.70;;;;;;5063851;28;20201;-72
2022/03/18 10:39:24;;;;;;;5.35;4.85;;;36.80;16.70;;;;;;5064200;28;20197;-73
2022/03/18 10:41:51;;;;;;;8.63;5.20;;;37.20;16.50;;;;;;5063903;28;20609;-73
2022/03/18 10:44:18;;;;;;;7.07;4.95;;;37.40;16.30;;;;;;5066519;28;20232;-70
2022/03/18 10:46:47;;;;;;;5.35;4.82;;;37.00;15.90;;;;;;5065965;28;20221;-71
2022/03/18 10:49:15;;;;;;;6.97;4.65;;;36.60;16.30;;;;;;5062941;28;20206;-71
2022/03/18 10:51:42;;;;;;;7.53;5.20;;;36.60;16.30;;;;;;5072164;28;20215;-70
2022/03/18 10:54:09;;;;;;;6.68;5.38;;;36.20;16.00;;;;;;5064413;28;20202;-72
2022/03/18 10:56:57;;;;;;;5.82;4.53;;;35.40;16.10;;;;;;5062430;28;20304;-70
2022/03/18 10:59:27;;;;;;;6.93;4.50;;;34.90;16.70;;;;;;5064072;28;20206;-68
2022/03/18 11:01:57;;;;;;;7.30;4.82;;;34.30;16.50;;;;;;5063645;28;20237;-71
2022/03/18 11:04:24;;;;;;;7.00;5.05;;;33.80;16.50;;;;;;5060804;28;20214;-71
2022/03/18 11:12:28;;;;;;;6.10;5.47;;;33.70;16.90;;;;;;5063214;28;20217;-71
2022/03/18 11:14:57;;;;;;;5.90;5.15;;;34.00;16.40;;;;;;5072418;28;20295;-68
2022/03/18 11:17:26;;;;;;;6.10;5.50;;;34.40;16.60;;;;;;5060605;28;20213;-69
2022/03/18 11:19:54;;;;;;;7.60;5.22;;;34.80;16.50;;;;;;5070857;28;20216;-68
2022/03/18 11:22:22;;;;;;;8.48;6.30;;;35.00;16.70;;;;;;5071884;28;20301;-67
2022/03/18 11:24:51;;;;;;;8.68;6.68;;;34.60;16.70;;;;;;5075343;28;20231;-71
2022/03/18 11:27:19;;;;;;;6.50;5.20;;;34.00;17.10;;;;;;5068652;28;20206;-71
2022/03/18 11:29:45;;;;;;;7.70;6.03;;;33.70;17.40;;;;;;5062089;28;20245;-70
2022/03/18 11:32:20;;;;;;;7.75;5.95;;;33.70;17.10;;;;;;5064483;28;20294;-71
2022/03/18 11:34:53;;;;;;;6.72;6.00;;;34.00;16.90;;;;;;5064016;28;20199;-72
2022/03/18 11:37:21;;;;;;;7.38;6.07;;;33.60;16.90;;;;;;5062775;28;20240;-74
2022/03/18 11:39:48;;;;;;;7.20;6.10;;;33.00;17.60;;;;;;5072441;28;20201;-73
2022/03/18 11:42:22;;;;;;;8.95;5.75;;;32.20;17.20;;;;;;5072960;28;20289;-71
2022/03/18 11:44:54;;;;;;;7.53;5.80;;;31.30;17.70;;;;;;5063662;28;20209;-74
2022/03/18 11:47:40;;;;;;;7.95;5.63;;;30.60;17.70;;;;;;5064418;28;20205;-72
2022/03/18 11:50:37;;;;;;;9.20;6.15;;;29.50;18.00;;;;;;5060718;28;20269;-72
2022/03/18 11:53:04;;;;;;;7.18;6.47;;;28.70;18.80;;;;;;5071529;28;20197;-71
2022/03/18 11:55:31;;;;;;;7.97;6.15;;;28.00;18.70;;;;;;5077316;28;20232;-72
2022/03/18 11:57:58;;;;;;;7.43;6.03;;;27.90;19.10;;;;;;5076183;28;20209;-72
2022/03/18 12:00:42;;;;;;;6.38;5.43;;;27.80;19.20;;;;;;5073163;28;20283;-72
2022/03/18 12:03:18;;;;;;;7.03;5.50;;;27.70;18.70;;;;;;5059996;28;20222;-71
2022/03/18 12:05:55;;;;;;;10.00;6.28;;;26.90;19.80;;;;;;5058935;28;20300;-71
2022/03/18 12:08:55;;;;;;;9.63;5.75;;;26.40;19.60;;;;;;5061983;28;20653;-71
2022/03/18 12:11:37;;;;;;;8.63;6.55;;;26.10;20.00;;;;;;5063158;28;20658;-74
2022/03/18 12:14:06;;;;;;;6.43;5.47;;;26.20;19.60;;;;;;5066692;28;20209;-74
2022/03/18 12:16:33;;;;;;;6.75;6.00;;;25.20;20.10;;;;;;5071519;28;20292;-71
2022/03/18 12:19:01;;;;;;;8.52;4.82;;;23.80;20.50;;;;;;5072729;28;20663;-71
2022/03/18 12:21:39;;;;;;;5.95;5.35;;;23.00;20.60;;;;;;5058922;28;20241;-74
2022/03/18 12:24:08;;;;;;;10.55;5.95;;;21.90;21.10;;;;;;5066455;28;20213;-73
2022/03/18 12:26:37;;;;;;;8.75;6.53;;;21.10;21.60;;;;;;5072853;28;20438;-72
2022/03/18 12:29:05;;;;;;;7.80;5.45;;;20.20;22.10;;;;;;5067894;28;20297;-71
2022/03/18 12:31:33;;;;;;;7.40;6.43;;;19.30;22.40;;;;;;5062626;28;20863;-70
2022/03/18 12:34:03;;;;;;;7.57;6.07;;;18.40;23.00;;;;;;5063024;28;20945;-71
2022/03/18 12:36:31;;;;;;;14.82;6.15;;;17.50;23.40;;;;;;5062000;28;20628;-70
2022/03/18 12:39:13;;;;;;;10.53;6.00;;;16.70;23.60;;;;;;5071407;28;20297;-71
2022/03/18 12:41:41;;;;;;;6.57;5.50;;;16.00;23.80;;;;;;5060545;28;20232;-68
2022/03/18 12:44:08;;;;;;;9.48;5.78;;;15.60;24.40;;;;;;5067833;28;20931;-69
2022/03/18 12:46:36;;;;;;;7.27;5.20;;;15.40;24.30;;;;;;5066585;28;20271;-70
2022/03/18 12:49:04;;;;;;;7.63;4.97;;;15.40;24.80;;;;;;5065962;28;20816;-70
2022/03/18 12:51:31;;;;;;;6.33;5.00;;;15.30;23.90;;;;;;5061844;28;20346;-69
2022/03/18 12:53:59;;;;;;;6.00;4.73;;;15.10;24.20;;;;;;5065864;28;20201;-69
2022/03/18 12:56:31;;;;;;;6.53;5.77;;;15.00;24.00;;;;;;5062264;28;20209;-70
2022/03/18 12:58:58;;;;;;;8.02;6.00;;;14.60;24.20;;;;;;5066809;28;20457;-73
2022/03/18 13:01:27;;;;;;;11.17;6.23;;;14.40;25.20;;;;;;5067749;28;20208;-74
2022/03/18 13:03:55;;;;;;;6.93;5.40;;;14.50;25.00;;;;;;5069937;28;20285;-73
2022/03/18 13:06:27;;;;;;;7.93;5.73;;;14.70;25.20;;;;;;5061645;28;20225;-73
2022/03/18 13:09:02;;;;;;;9.17;5.50;;;14.80;24.90;;;;;;5068173;28;20206;-70
2022/03/18 13:11:35;;;;;;;6.23;4.97;;;14.70;24.80;;;;;;5066317;28;20208;-71
2022/03/18 13:14:05;;;;;;;7.90;5.13;;;14.60;24.90;;;;;;5052350;28;20615;-74
2022/03/18 13:16:40;;;;;;;11.57;6.07;;;14.20;24.90;;;;;;5054939;28;20227;-70
2022/03/18 13:19:08;;;;;;;8.23;5.30;;;13.90;25.30;;;;;;5050613;28;20206;-74
2022/03/18 13:21:45;;;;;;;8.00;5.63;;;13.70;26.10;;;;;;5060344;28;20233;-74